createdAt,value
2019-01-15T00:01:23.428Z,74.61
2019-01-15T00:03:53.879Z,74.99
2019-01-15T00:06:24.377Z,75.15
2019-01-15T00:08:54.906Z,75.05
2019-01-15T00:11:25.362Z,75.49
2019-01-15T00:13:55.902Z,75.40
2019-01-15T00:16:26.668Z,75.09
2019-01-15T00:18:57.818Z,75.17
2019-01-15T00:21:28.358Z,75.14
2019-01-15T00:23:59.117Z,74.79
2019-01-15T00:26:29.660Z,75.29
2019-01-15T00:29:00.092Z,74.91
2019-01-15T00:31:30.758Z,75.25
2019-01-15T00:34:01.329Z,75.72
2019-01-15T00:36:31.825Z,75.63
2019-01-15T00:39:02.698Z,75.67
2019-01-15T00:41:33.139Z,75.66
2019-01-15T00:44:03.687Z,76.08
2019-01-15T00:46:34.688Z,76.07
2019-01-15T00:49:05.209Z,75.58
2019-01-15T00:51:35.777Z,75.59
2019-01-15T00:54:06.816Z,75.56
2019-01-15T00:56:37.408Z,75.38
2019-01-15T00:59:08.240Z,75.47
2019-01-15T01:01:38.909Z,74.62
2019-01-15T01:04:09.578Z,75.06
2019-01-15T01:06:40.218Z,74.97
2019-01-15T01:09:12.501Z,75.09
2019-01-15T01:11:43.117Z,74.93
2019-01-15T01:14:14.058Z,75.39
2019-01-15T01:16:44.633Z,75.21
2019-01-15T01:19:15.498Z,74.38
2019-01-15T01:21:46.169Z,74.66
2019-01-15T01:24:17.578Z,74.46
2019-01-15T01:26:48.308Z,74.25
2019-01-15T01:29:18.967Z,73.85
2019-01-15T01:31:49.717Z,74.04
2019-01-15T01:34:20.319Z,74.26
2019-01-15T01:36:50.947Z,74.05
2019-01-15T01:39:21.619Z,74.54
2019-01-15T01:41:52.358Z,74.36
2019-01-15T01:44:22.977Z,74.29
2019-01-15T01:46:53.567Z,74.41
2019-01-15T01:49:23.992Z,74.30
2019-01-15T01:51:54.552Z,74.55
2019-01-15T01:54:25.431Z,73.72
2019-01-15T01:56:56.017Z,73.80
2019-01-15T01:59:26.697Z,73.47
2019-01-15T02:01:57.298Z,73.05
2019-01-15T02:04:27.897Z,73.73
2019-01-15T02:06:58.553Z,73.78
2019-01-15T02:09:29.620Z,73.72
2019-01-15T02:12:00.207Z,73.52
2019-01-15T02:14:30.841Z,73.41
2019-01-15T02:17:01.807Z,72.85
2019-01-15T02:19:32.196Z,72.90
2019-01-15T02:22:02.778Z,73.06
2019-01-15T02:24:33.887Z,73.23
2019-01-15T02:27:07.059Z,73.50
2019-01-15T02:29:37.727Z,72.97
2019-01-15T02:32:08.230Z,73.61
2019-01-15T02:34:38.727Z,75.00
2019-01-15T02:37:09.423Z,75.19
2019-01-15T02:39:40.007Z,74.70
2019-01-15T02:42:10.510Z,75.27
2019-01-15T02:44:41.069Z,75.25
2019-01-15T02:47:11.572Z,74.33
2019-01-15T02:49:42.013Z,74.48
2019-01-15T02:52:12.914Z,74.22
2019-01-15T02:54:43.418Z,74.50
2019-01-15T02:57:14.057Z,74.52
2019-01-15T02:59:44.734Z,74.64
2019-01-15T03:02:15.219Z,74.68
2019-01-15T03:04:45.798Z,74.74
2019-01-15T03:07:16.417Z,74.95
2019-01-15T03:09:46.988Z,74.93
2019-01-15T03:12:17.406Z,75.13
2019-01-15T03:14:47.934Z,75.52
2019-01-15T03:17:18.449Z,76.18
2019-01-15T03:19:49.278Z,76.16
2019-01-15T03:22:20.177Z,75.99
2019-01-15T03:24:50.761Z,76.08
2019-01-15T03:27:21.332Z,76.36
2019-01-15T03:29:51.896Z,76.22
2019-01-15T03:32:22.549Z,76.74
2019-01-15T03:34:52.987Z,76.77
2019-01-15T03:37:23.718Z,77.06
2019-01-15T03:39:54.258Z,77.12
2019-01-15T03:42:24.759Z,77.22
2019-01-15T03:44:56.128Z,77.23
2019-01-15T03:47:26.598Z,77.78
2019-01-15T03:49:57.074Z,77.95
2019-01-15T03:52:27.703Z,77.92
2019-01-15T03:54:58.132Z,77.48
2019-01-15T03:57:28.622Z,77.27
2019-01-15T03:59:59.179Z,77.28
2019-01-15T04:02:29.767Z,76.84
2019-01-15T04:05:00.763Z,76.97
2019-01-15T04:07:31.516Z,76.89
2019-01-15T04:10:02.242Z,77.00
2019-01-15T04:12:32.683Z,76.82
2019-01-15T04:15:03.250Z,76.75
2019-01-15T04:17:33.788Z,76.22
2019-01-15T04:20:05.715Z,76.08
2019-01-15T04:22:36.294Z,75.58
2019-01-15T04:25:08.125Z,75.96
2019-01-15T04:27:38.637Z,75.72
2019-01-15T04:30:13.788Z,75.69
2019-01-15T04:32:44.282Z,75.08
2019-01-15T04:35:14.884Z,74.72
2019-01-15T04:37:45.434Z,74.84
2019-01-15T04:40:20.403Z,74.67
2019-01-15T04:42:51.127Z,74.49
2019-01-15T04:45:24.042Z,74.70
2019-01-15T04:47:54.597Z,75.25
2019-01-15T04:50:25.148Z,75.46
2019-01-15T04:53:01.095Z,75.36
2019-01-15T04:55:31.878Z,75.78
2019-01-15T04:58:02.529Z,75.76
2019-01-15T05:00:33.201Z,76.39
2019-01-15T05:03:07.403Z,76.86
2019-01-15T05:05:37.998Z,77.12
2019-01-15T05:08:09.040Z,77.98
2019-01-15T05:10:41.551Z,78.01
2019-01-15T05:13:11.948Z,78.15
2019-01-15T05:15:42.742Z,77.91
2019-01-15T05:18:15.402Z,77.92
2019-01-15T05:20:45.810Z,77.82
2019-01-15T05:23:18.334Z,77.57
2019-01-15T05:25:48.909Z,77.44
2019-01-15T05:28:19.593Z,76.41
2019-01-15T05:30:50.433Z,75.83
2019-01-15T05:33:21.067Z,75.90
2019-01-15T05:35:51.599Z,76.02
2019-01-15T05:38:22.168Z,76.27
2019-01-15T05:40:55.452Z,76.41
2019-01-15T05:43:26.069Z,76.66
2019-01-15T05:45:56.616Z,76.83
2019-01-15T05:48:33.779Z,77.21
2019-01-15T05:51:15.515Z,77.10
2019-01-15T05:53:45.957Z,76.83
2019-01-15T05:56:16.443Z,76.89
2019-01-15T05:58:47.119Z,76.91
2019-01-15T06:01:18.657Z,77.22
2019-01-15T06:03:49.293Z,77.17
2019-01-15T06:06:19.810Z,77.23
2019-01-15T06:08:50.413Z,77.24
2019-01-15T06:11:21.010Z,77.16
2019-01-15T06:13:51.727Z,77.27
2019-01-15T06:16:22.349Z,77.74
2019-01-15T06:18:52.847Z,77.70
2019-01-15T06:21:23.418Z,77.98
2019-01-15T06:23:54.512Z,78.02
2019-01-15T06:26:24.938Z,78.33
2019-01-15T06:28:55.865Z,78.36
2019-01-15T06:31:26.466Z,78.28
2019-01-15T06:33:57.053Z,78.39
2019-01-15T06:36:27.563Z,78.39
2019-01-15T06:38:58.097Z,78.41
2019-01-15T06:41:28.812Z,78.39
2019-01-15T06:43:59.207Z,78.37
2019-01-15T06:46:30.381Z,78.54
2019-01-15T06:49:00.967Z,78.51
2019-01-15T06:51:31.658Z,78.71
2019-01-15T06:54:02.334Z,78.85
2019-01-15T06:56:32.845Z,78.78
2019-01-15T06:59:03.340Z,78.58
2019-01-15T07:01:33.840Z,78.37
2019-01-15T07:04:04.599Z,78.79
2019-01-15T07:06:35.018Z,78.57
2019-01-15T07:09:09.437Z,78.83
2019-01-15T07:11:40.003Z,78.64
2019-01-15T07:14:10.687Z,78.30
2019-01-15T07:16:41.787Z,78.20
2019-01-15T07:19:12.489Z,78.41
2019-01-15T07:21:43.018Z,78.45
2019-01-15T07:24:14.128Z,78.83
2019-01-15T07:26:44.718Z,79.67
2019-01-15T07:29:15.562Z,80.62
2019-01-15T07:31:46.030Z,81.08
2019-01-15T07:34:16.653Z,81.08
2019-01-15T07:36:47.220Z,80.97
2019-01-15T07:39:17.850Z,81.02
2019-01-15T07:41:48.362Z,81.73
2019-01-15T07:44:19.052Z,82.66
2019-01-15T07:46:49.527Z,83.49
2019-01-15T07:49:20.084Z,84.60
2019-01-15T07:51:50.488Z,85.61
2019-01-15T07:54:21.072Z,86.41
2019-01-15T07:56:51.602Z,87.27
2019-01-15T07:59:22.201Z,87.82
2019-01-15T08:01:53.108Z,88.22
2019-01-15T08:04:23.578Z,88.41
2019-01-15T08:06:54.150Z,88.83
2019-01-15T08:09:25.123Z,89.14
2019-01-15T08:11:55.703Z,89.45
2019-01-15T08:14:26.346Z,89.70
2019-01-15T08:16:56.993Z,89.97
2019-01-15T08:19:27.812Z,90.25
2019-01-15T08:21:58.325Z,90.56
2019-01-15T08:24:29.199Z,90.81
2019-01-15T08:26:59.757Z,91.10
2019-01-15T08:29:30.252Z,91.37
2019-01-15T08:32:00.788Z,91.57
2019-01-15T08:34:31.192Z,91.68
2019-01-15T08:37:02.013Z,91.78
2019-01-15T08:39:32.487Z,91.82
2019-01-15T08:42:03.136Z,91.84
2019-01-15T08:44:33.583Z,91.86
2019-01-15T08:47:04.171Z,91.83
2019-01-15T08:49:34.543Z,91.78
2019-01-15T08:52:04.949Z,91.69
2019-01-15T08:54:35.776Z,91.58
2019-01-15T08:57:06.555Z,91.38
2019-01-15T08:59:37.100Z,91.25
2019-01-15T09:02:07.977Z,91.08
2019-01-15T09:04:38.403Z,90.85
2019-01-15T09:07:08.970Z,90.69
2019-01-15T09:09:39.466Z,90.56
2019-01-15T09:12:10.229Z,90.47
2019-01-15T09:14:40.793Z,90.42
2019-01-15T09:17:11.399Z,90.55
2019-01-15T09:19:42.026Z,90.55
2019-01-15T09:22:12.494Z,90.51
2019-01-15T09:24:42.868Z,90.42
2019-01-15T09:27:13.388Z,90.27
2019-01-15T09:29:43.887Z,90.11
2019-01-15T09:32:14.308Z,89.96
2019-01-15T09:34:44.914Z,89.76
2019-01-15T09:37:15.361Z,89.53
2019-01-15T09:39:46.027Z,89.39
2019-01-15T09:42:17.144Z,89.37
2019-01-15T09:44:48.333Z,89.41
2019-01-15T09:47:18.908Z,89.41
2019-01-15T09:49:49.416Z,89.35
2019-01-15T09:52:20.631Z,89.31
2019-01-15T09:54:51.541Z,89.14
2019-01-15T09:57:22.108Z,88.91
2019-01-15T09:59:52.551Z,88.55
2019-01-15T10:02:24.057Z,88.36
2019-01-15T10:04:54.738Z,88.19
2019-01-15T10:07:25.217Z,88.26
2019-01-15T10:09:55.795Z,88.32
2019-01-15T10:12:26.262Z,88.50
2019-01-15T10:14:56.664Z,88.64
2019-01-15T10:17:27.368Z,88.53
2019-01-15T10:19:57.848Z,88.29
2019-01-15T10:22:28.848Z,88.23
2019-01-15T10:24:59.839Z,88.05
2019-01-15T10:27:30.609Z,87.49
2019-01-15T10:30:03.453Z,87.17
2019-01-15T10:33:01.817Z,87.20
2019-01-15T10:35:59.259Z,87.25
2019-01-15T10:38:32.706Z,87.32
2019-01-15T10:41:04.117Z,87.40
2019-01-15T10:43:36.036Z,87.62
2019-01-15T10:46:07.637Z,87.93
2019-01-15T10:48:38.128Z,88.13
2019-01-15T10:51:08.608Z,88.28
2019-01-15T10:53:39.222Z,88.47
2019-01-15T10:56:09.658Z,88.83
2019-01-15T10:58:40.224Z,88.95
2019-01-15T11:01:11.161Z,89.03
2019-01-15T11:03:41.544Z,88.96
2019-01-15T11:06:12.169Z,88.71
2019-01-15T11:08:42.752Z,88.23
2019-01-15T11:11:13.375Z,88.16
2019-01-15T11:13:43.777Z,88.21
2019-01-15T11:16:14.590Z,88.03
2019-01-15T11:18:45.156Z,87.71
2019-01-15T11:21:15.695Z,87.72
2019-01-15T11:23:46.284Z,87.64
2019-01-15T11:26:16.968Z,87.61
2019-01-15T11:28:47.548Z,87.82
2019-01-15T11:31:18.080Z,87.98
2019-01-15T11:33:48.582Z,87.90
2019-01-15T11:36:18.909Z,88.28
2019-01-15T11:38:49.487Z,88.17
2019-01-15T11:41:19.951Z,87.68
2019-01-15T11:43:50.356Z,87.72
2019-01-15T11:46:20.857Z,87.68
2019-01-15T11:48:51.229Z,87.28
2019-01-15T11:51:21.817Z,87.42
2019-01-15T11:53:52.347Z,87.77
2019-01-15T11:56:22.859Z,87.68
2019-01-15T11:58:53.987Z,87.57
2019-01-15T12:01:38.407Z,87.40
2019-01-15T12:04:27.889Z,87.50
2019-01-15T12:07:17.461Z,87.36
2019-01-15T12:09:57.163Z,87.06
2019-01-15T12:12:46.833Z,86.68
2019-01-15T12:15:36.193Z,86.54
2019-01-15T12:18:25.687Z,86.52
2019-01-15T12:21:15.079Z,86.73
2019-01-15T12:24:05.309Z,86.71
2019-01-15T12:26:55.329Z,86.97
2019-01-15T12:29:44.663Z,86.68
2019-01-15T12:32:34.299Z,86.60
2019-01-15T12:35:24.583Z,86.75
2019-01-15T12:38:13.278Z,86.60
2019-01-15T12:41:02.525Z,86.59
2019-01-15T12:43:43.566Z,86.74
2019-01-15T12:46:32.969Z,86.13
2019-01-15T12:49:22.216Z,86.35
2019-01-15T12:52:11.601Z,86.57
2019-01-15T12:55:00.983Z,86.51
2019-01-15T12:57:46.846Z,86.79
2019-01-15T13:00:32.373Z,87.01
2019-01-15T13:03:15.229Z,87.20
2019-01-15T13:06:04.643Z,87.51
2019-01-15T13:08:54.016Z,87.73
2019-01-15T13:11:43.383Z,88.07
2019-01-15T13:14:32.776Z,88.40
2019-01-15T13:17:22.113Z,88.56
2019-01-15T13:20:11.522Z,88.46
2019-01-15T13:23:00.904Z,88.72
2019-01-15T13:25:52.035Z,88.80
2019-01-15T13:28:31.634Z,88.87
2019-01-15T13:31:21.001Z,88.87
2019-01-15T13:34:00.924Z,89.19
2019-01-15T13:36:50.520Z,89.23
2019-01-15T13:39:39.852Z,89.13
2019-01-15T13:42:29.273Z,89.26
2019-01-15T13:45:18.556Z,89.18
2019-01-15T13:48:05.672Z,89.19
2019-01-15T13:50:45.802Z,89.38
2019-01-15T13:53:35.396Z,89.43
2019-01-15T13:56:18.843Z,89.49
2019-01-15T13:59:08.238Z,89.44
2019-01-15T14:01:57.553Z,89.65
2019-01-15T14:04:43.196Z,89.87
2019-01-15T14:07:32.677Z,90.12
2019-01-15T14:10:17.314Z,90.33
2019-01-15T14:13:06.678Z,90.60
2019-01-15T14:15:56.028Z,90.69
2019-01-15T14:18:45.288Z,90.85
2019-01-15T14:21:34.728Z,91.06
2019-01-15T14:24:24.115Z,91.23
2019-01-15T14:27:04.639Z,91.35
2019-01-15T14:29:53.913Z,91.44
2019-01-15T14:32:44.003Z,91.49
2019-01-15T14:35:31.039Z,91.45
2019-01-15T14:38:20.447Z,91.39
2019-01-15T14:41:09.879Z,91.36
2019-01-15T14:43:59.278Z,91.32
2019-01-15T14:46:48.493Z,91.31
2019-01-15T14:49:33.285Z,91.26
2019-01-15T14:52:18.628Z,91.12
2019-01-15T14:55:03.764Z,90.98
2019-01-15T14:57:53.421Z,90.96
2019-01-15T15:00:43.008Z,90.88
2019-01-15T15:03:26.438Z,90.81
2019-01-15T15:06:17.088Z,90.73
2019-01-15T15:09:06.769Z,90.65
2019-01-15T15:11:53.902Z,90.50
2019-01-15T15:14:47.775Z,90.38
2019-01-15T15:17:37.299Z,90.35
2019-01-15T15:20:23.769Z,90.47
2019-01-15T15:23:11.906Z,90.49
2019-01-15T15:25:50.290Z,90.44
2019-01-15T15:28:40.193Z,90.46
2019-01-15T15:31:29.513Z,90.39
2019-01-15T15:34:19.268Z,90.39
2019-01-15T15:37:10.365Z,90.44
2019-01-15T15:39:59.815Z,90.38
2019-01-15T15:42:54.162Z,90.37
2019-01-15T15:45:43.643Z,90.33
2019-01-15T15:48:33.041Z,90.17
2019-01-15T15:51:17.320Z,90.12
2019-01-15T15:54:09.763Z,89.99
2019-01-15T15:56:59.401Z,89.95
2019-01-15T15:59:43.019Z,89.98
2019-01-15T16:02:32.694Z,89.92
2019-01-15T16:05:19.999Z,89.94
2019-01-15T16:08:10.616Z,89.98
2019-01-15T16:11:01.649Z,90.06
2019-01-15T16:13:52.492Z,90.06
2019-01-15T16:16:43.168Z,90.05
2019-01-15T16:19:34.972Z,90.09
2019-01-15T16:22:15.628Z,90.19
2019-01-15T16:25:08.709Z,90.26
2019-01-15T16:27:58.024Z,90.30
2019-01-15T16:30:59.416Z,90.37
2019-01-15T16:33:48.703Z,90.39
2019-01-15T16:36:44.850Z,90.41
2019-01-15T16:39:36.577Z,90.42
2019-01-15T16:42:30.419Z,90.43
2019-01-15T16:45:23.772Z,90.45
2019-01-15T16:48:14.259Z,90.55
2019-01-15T16:51:04.808Z,90.62
2019-01-15T16:53:54.126Z,90.64
2019-01-15T16:56:50.503Z,90.64
2019-01-15T16:59:35.898Z,90.62
2019-01-15T17:02:25.543Z,90.68
2019-01-15T17:05:17.614Z,90.72
2019-01-15T17:08:07.997Z,90.74
2019-01-15T17:10:59.859Z,90.81
2019-01-15T17:13:51.236Z,90.81
2019-01-15T17:16:42.326Z,90.89
2019-01-15T17:19:33.061Z,91.11
2019-01-15T17:22:25.607Z,91.32
2019-01-15T17:25:17.550Z,91.39
2019-01-15T17:28:00.876Z,91.45
2019-01-15T17:30:51.310Z,91.46
2019-01-15T17:33:40.265Z,91.48
2019-01-15T17:36:33.133Z,91.53
2019-01-15T17:39:22.763Z,91.48
2019-01-15T17:42:17.640Z,91.50
2019-01-15T17:45:07.156Z,91.49
2019-01-15T17:47:55.447Z,91.45
2019-01-15T17:50:45.041Z,91.46
2019-01-15T17:53:34.479Z,91.44
2019-01-15T17:56:19.771Z,91.40
2019-01-15T17:59:00.436Z,91.35
2019-01-15T18:01:49.908Z,91.34
2019-01-15T18:04:42.313Z,91.33
2019-01-15T18:07:27.064Z,91.32
2019-01-15T18:10:16.324Z,91.24
2019-01-15T18:13:08.118Z,91.23
2019-01-15T18:15:53.492Z,91.09
2019-01-15T18:18:50.358Z,90.98
2019-01-15T18:21:41.298Z,90.93
2019-01-15T18:24:27.354Z,90.97
2019-01-15T18:27:09.071Z,91.13
2019-01-15T18:30:00.856Z,91.28
2019-01-15T18:32:58.137Z,91.40
2019-01-15T18:35:52.004Z,91.43
2019-01-15T18:38:35.515Z,91.50
2019-01-15T18:41:27.500Z,91.63
2019-01-15T18:44:18.854Z,91.75
2019-01-15T18:47:12.443Z,91.88
2019-01-15T18:50:05.521Z,91.96
2019-01-15T18:52:58.768Z,92.09
2019-01-15T18:55:49.866Z,92.19
2019-01-15T18:58:43.353Z,92.24
2019-01-15T19:01:37.718Z,92.34
2019-01-15T19:04:25.313Z,92.43
2019-01-15T19:07:17.818Z,92.52
2019-01-15T19:10:10.790Z,92.60
2019-01-15T19:13:01.994Z,92.65
2019-01-15T19:16:00.266Z,92.69
2019-01-15T19:18:51.428Z,92.71
2019-01-15T19:21:40.149Z,92.74
2019-01-15T19:24:47.424Z,92.76
2019-01-15T19:27:40.378Z,92.79
2019-01-15T19:30:34.587Z,92.82
2019-01-15T19:33:26.423Z,92.81
2019-01-15T19:36:20.088Z,92.82
2019-01-15T19:39:13.514Z,92.88
2019-01-15T19:42:04.427Z,92.92
2019-01-15T19:45:03.306Z,92.94
2019-01-15T19:47:54.795Z,92.95
2019-01-15T19:50:36.298Z,93.00
2019-01-15T19:53:25.840Z,93.03
2019-01-15T19:56:08.884Z,93.03
2019-01-15T19:58:59.212Z,93.03
2019-01-15T20:01:46.963Z,93.03
2019-01-15T20:04:41.871Z,93.06
2019-01-15T20:07:25.492Z,93.06
2019-01-15T20:10:20.249Z,93.05
2019-01-15T20:13:01.518Z,93.06
2019-01-15T20:15:59.202Z,93.03
2019-01-15T20:18:50.399Z,92.99
2019-01-15T20:21:58.941Z,92.97
2019-01-15T20:24:48.489Z,92.94
2019-01-15T20:27:39.380Z,92.95
2019-01-15T20:30:26.692Z,92.93
2019-01-15T20:33:23.327Z,92.89
2019-01-15T20:36:12.157Z,92.88
2019-01-15T20:38:54.350Z,92.90
2019-01-15T20:41:36.167Z,92.87
2019-01-15T20:44:29.502Z,92.87
2019-01-15T20:47:25.804Z,92.82
2019-01-15T20:50:19.132Z,92.79
2019-01-15T20:53:09.891Z,92.75
2019-01-15T20:56:00.578Z,92.77
2019-01-15T20:58:56.567Z,92.77
2019-01-15T21:01:46.473Z,92.78
2019-01-15T21:04:40.278Z,92.74
2019-01-15T21:07:32.700Z,92.70
2019-01-15T21:10:15.812Z,92.66
2019-01-15T21:13:10.380Z,92.64
2019-01-15T21:15:59.874Z,92.57
2019-01-15T21:18:37.678Z,92.47
2019-01-15T21:21:27.623Z,92.41
2019-01-15T21:24:14.766Z,92.31
2019-01-15T21:27:07.582Z,92.25
2019-01-15T21:29:50.942Z,92.19
2019-01-15T21:32:41.500Z,92.03
2019-01-15T21:35:34.282Z,91.85
2019-01-15T21:38:19.216Z,91.57
2019-01-15T21:41:08.963Z,91.42
2019-01-15T21:43:59.509Z,91.38
2019-01-15T21:46:38.924Z,91.31
2019-01-15T21:49:28.693Z,91.23
2019-01-15T21:52:13.584Z,91.13
2019-01-15T21:55:05.767Z,91.11
2019-01-15T21:57:55.303Z,91.00
2019-01-15T22:00:44.925Z,91.01
2019-01-15T22:03:35.978Z,91.10
2019-01-15T22:06:25.773Z,91.12
2019-01-15T22:09:15.162Z,91.06
2019-01-15T22:12:04.483Z,91.10
2019-01-15T22:14:50.478Z,91.17
2019-01-15T22:17:39.742Z,91.30
2019-01-15T22:20:29.818Z,91.29
2019-01-15T22:23:19.238Z,91.19
2019-01-15T22:26:08.856Z,90.98
2019-01-15T22:28:57.489Z,91.01
2019-01-15T22:31:36.927Z,90.97
2019-01-15T22:34:26.347Z,90.92
2019-01-15T22:37:09.161Z,90.78
2019-01-15T22:39:58.173Z,90.71
2019-01-15T22:42:47.548Z,90.68
2019-01-15T22:45:34.223Z,90.64
2019-01-15T22:48:23.617Z,90.42
2019-01-15T22:51:13.023Z,90.36
2019-01-15T22:54:02.437Z,90.35
2019-01-15T22:56:51.833Z,90.32
2019-01-15T22:59:37.340Z,90.22
2019-01-15T23:02:26.727Z,90.19
2019-01-15T23:05:16.138Z,89.79
2019-01-15T23:08:05.609Z,89.84
2019-01-15T23:10:54.953Z,89.91
2019-01-15T23:13:36.038Z,89.93
2019-01-15T23:16:19.243Z,89.99
2019-01-15T23:19:00.426Z,89.86
2019-01-15T23:21:45.982Z,89.79
2019-01-15T23:24:35.344Z,89.64
2019-01-15T23:27:25.096Z,89.55
2019-01-15T23:30:05.743Z,89.54
2019-01-15T23:32:55.167Z,89.46
2019-01-15T23:35:44.550Z,89.44
2019-01-15T23:38:34.027Z,89.52
2019-01-15T23:41:23.642Z,89.44
2019-01-15T23:44:12.947Z,89.39
2019-01-15T23:47:02.443Z,89.59
2019-01-15T23:49:51.763Z,89.79
2019-01-15T23:52:33.287Z,90.00
2019-01-15T23:55:17.178Z,89.91
2019-01-15T23:57:59.532Z,90.01
